sensor_id;sensor_type;location;lat;lon;timestamp;pressure;altitude;pressure_sealevel;temperature;humidity
18765;BME280;9511;54.242;12.448;2023-11-21T04:05:51;101207.88;;;4.49;100.00
18765;BME280;9511;54.242;12.448;2023-11-21T04:08:18;101210.44;;;4.48;100.00
18765;BME280;9511;54.242;12.448;2023-11-21T04:10:45;101208.53;;;4.45;100.00
18765;BME280;9511;54.242;12.448;2023-11-21T04:13:12;101214.03;;;4.50;100.00
18765;BME280;9511;54.242;12.448;2023-11-21T04:15:40;101211.13;;;4.45;100.00
18765;BME280;9511;54.242;12.448;2023-11-21T04:18:07;101212.94;;;4.46;100.00
18765;BME280;9511;54.242;12.448;2023-11-21T04:20:34;101213.84;;;4.47;100.00
18765;BME280;9511;54.242;12.448;2023-11-21T04:23:03;101217.47;;;4.49;100.00
18765;BME280;9511;54.242;12.448;2023-11-21T04:25:30;101222.97;;;4.53;100.00
18765;BME280;9511;54.242;12.448;2023-11-21T04:27:57;101227.94;;;4.49;100.00
18765;BME280;9511;54.242;12.448;2023-11-21T04:30:24;101237.53;;;4.48;100.00
18765;BME280;9511;54.242;12.448;2023-11-21T04:32:52;101235.72;;;4.47;100.00
18765;BME280;9511;54.242;12.448;2023-11-21T04:35:19;101236.50;;;4.46;100.00
18765;BME280;9511;54.242;12.448;2023-11-21T04:37:46;101236.78;;;4.51;100.00
18765;BME280;9511;54.242;12.448;2023-11-21T04:40:15;101232.38;;;4.50;100.00
18765;BME280;9511;54.242;12.448;2023-11-21T04:42:41;101247.19;;;4.49;100.00
18765;BME280;9511;54.242;12.448;2023-11-21T04:45:09;101244.56;;;4.49;100.00
18765;BME280;9511;54.242;12.448;2023-11-21T04:47:37;101249.06;;;4.52;100.00
18765;BME280;9511;54.242;12.448;2023-11-21T04:50:05;101250.97;;;4.55;100.00
18765;BME280;9511;54.242;12.448;2023-11-21T04:52:33;101252.03;;;4.58;100.00
18765;BME280;9511;54.242;12.448;2023-11-21T04:55:00;101248.34;;;4.55;100.00
18765;BME280;9511;54.242;12.448;2023-11-21T04:57:29;101251.69;;;4.52;100.00
18765;BME280;9511;54.242;12.448;2023-11-21T04:59:57;101255.19;;;4.52;100.00
18765;BME280;9511;54.242;12.448;2023-11-21T05:02:24;101252.50;;;4.51;100.00
18765;BME280;9511;54.242;12.448;2023-11-21T05:04:51;101256.00;;;4.51;100.00
18765;BME280;9511;54.242;12.448;2023-11-21T05:07:19;101263.25;;;4.56;100.00
18765;BME280;9511;54.242;12.448;2023-11-21T05:09:46;101265.13;;;4.58;100.00
18765;BME280;9511;54.242;12.448;2023-11-21T05:12:14;101266.03;;;4.59;100.00
18765;BME280;9511;54.242;12.448;2023-11-21T05:14:42;101272.00;;;4.56;100.00
18765;BME280;9511;54.242;12.448;2023-11-21T05:17:10;101271.09;;;4.56;100.00
18765;BME280;9511;54.242;12.448;2023-11-21T05:19:37;101281.66;;;4.57;100.00
18765;BME280;9511;54.242;12.448;2023-11-21T05:22:06;101285.03;;;4.55;100.00
18765;BME280;9511;54.242;12.448;2023-11-21T05:24:34;101284.00;;;4.52;100.00
18765;BME280;9511;54.242;12.448;2023-11-21T05:27:02;101303.00;;;4.48;100.00
18765;BME280;9511;54.242;12.448;2023-11-21T05:29:29;101296.75;;;4.46;100.00
18765;BME280;9511;54.242;12.448;2023-11-21T05:31:58;101300.19;;;4.45;100.00
18765;BME280;9511;54.242;12.448;2023-11-21T05:34:25;101298.03;;;4.38;100.00
18765;BME280;9511;54.242;12.448;2023-11-21T05:36:53;101299.84;;;4.39;100.00
18765;BME280;9511;54.242;12.448;2023-11-21T05:39:20;101316.28;;;4.37;100.00
18765;BME280;9511;54.242;12.448;2023-11-21T05:41:47;101303.47;;;4.26;100.00
18765;BME280;9511;54.242;12.448;2023-11-21T05:44:15;101313.66;;;4.22;100.00
18765;BME280;9511;54.242;12.448;2023-11-21T05:46:42;101323.69;;;4.14;100.00
18765;BME280;9511;54.242;12.448;2023-11-21T05:49:11;101329.47;;;4.09;100.00
18765;BME280;9511;54.242;12.448;2023-11-21T05:51:38;101332.69;;;4.05;100.00
18765;BME280;9511;54.242;12.448;2023-11-21T05:54:06;101330.81;;;4.02;100.00
18765;BME280;9511;54.242;12.448;2023-11-21T05:56:34;101339.00;;;3.93;100.00
18765;BME280;9511;54.242;12.448;2023-11-21T05:59:01;101343.53;;;3.96;100.00
18765;BME280;9511;54.242;12.448;2023-11-21T06:01:29;101346.84;;;3.93;100.00
18765;BME280;9511;54.242;12.448;2023-11-21T06:03:56;101357.31;;;3.93;100.00
18765;BME280;9511;54.242;12.448;2023-11-21T06:06:26;101354.69;;;3.93;100.00
18765;BME280;9511;54.242;12.448;2023-11-21T06:08:53;101356.09;;;4.02;100.00
18765;BME280;9511;54.242;12.448;2023-11-21T06:11:21;101349.22;;;4.04;100.00
18765;BME280;9511;54.242;12.448;2023-11-21T06:13:49;101359.69;;;4.04;100.00
18765;BME280;9511;54.242;12.448;2023-11-21T06:16:19;101356.34;;;4.06;100.00
18765;BME280;9511;54.242;12.448;2023-11-21T06:18:47;101367.41;;;4.30;100.00
18765;BME280;9511;54.242;12.448;2023-11-21T06:21:14;101365.53;;;4.42;100.00
18765;BME280;9511;54.242;12.448;2023-11-21T06:23:44;101371.75;;;4.44;100.00
18765;BME280;9511;54.242;12.448;2023-11-21T06:26:11;101361.25;;;4.44;100.00
18765;BME280;9511;54.242;12.448;2023-11-21T06:28:39;101368.31;;;4.45;100.00
18765;BME280;9511;54.242;12.448;2023-11-21T06:31:07;101370.66;;;4.41;100.00
18765;BME280;9511;54.242;12.448;2023-11-21T06:33:34;101379.03;;;4.35;100.00
18765;BME280;9511;54.242;12.448;2023-11-21T06:36:02;101375.19;;;4.43;100.00
18765;BME280;9511;54.242;12.448;2023-11-21T06:38:29;101375.81;;;4.39;100.00
18765;BME280;9511;54.242;12.448;2023-11-21T06:40:59;101376.41;;;4.35;100.00
18765;BME280;9511;54.242;12.448;2023-11-21T06:43:28;101383.13;;;4.30;100.00
18765;BME280;9511;54.242;12.448;2023-11-21T06:45:57;101379.56;;;4.30;100.00
18765;BME280;9511;54.242;12.448;2023-11-21T06:48:25;101390.16;;;4.31;100.00
18765;BME280;9511;54.242;12.448;2023-11-21T06:50:52;101396.63;;;4.23;100.00
18765;BME280;9511;54.242;12.448;2023-11-21T06:53:19;101400.81;;;4.19;100.00
18765;BME280;9511;54.242;12.448;2023-11-21T06:55:47;101412.50;;;4.11;100.00
18765;BME280;9511;54.242;12.448;2023-11-21T06:58:15;101422.16;;;4.12;100.00
18765;BME280;9511;54.242;12.448;2023-11-21T07:00:42;101421.19;;;4.10;100.00
18765;BME280;9511;54.242;12.448;2023-11-21T07:03:12;101426.78;;;4.02;100.00
18765;BME280;9511;54.242;12.448;2023-11-21T07:05:39;101431.78;;;3.98;100.00
18765;BME280;9511;54.242;12.448;2023-11-21T07:08:07;101444.69;;;3.95;100.00
18765;BME280;9511;54.242;12.448;2023-11-21T07:10:35;101445.09;;;4.02;100.00
18765;BME280;9511;54.242;12.448;2023-11-21T07:13:03;101451.50;;;4.07;100.00
18765;BME280;9511;54.242;12.448;2023-11-21T07:15:32;101453.50;;;4.11;100.00
18765;BME280;9511;54.242;12.448;2023-11-21T07:18:00;101458.22;;;4.16;100.00
18765;BME280;9511;54.242;12.448;2023-11-21T07:20:27;101465.38;;;4.19;100.00
18765;BME280;9511;54.242;12.448;2023-11-21T07:22:56;101464.03;;;4.25;100.00
18765;BME280;9511;54.242;12.448;2023-11-21T07:25:24;101474.88;;;4.32;100.00
18765;BME280;9511;54.242;12.448;2023-11-21T07:27:51;101478.69;;;4.37;100.00
18765;BME280;9511;54.242;12.448;2023-11-21T07:30:19;101474.00;;;4.46;100.00
18765;BME280;9511;54.242;12.448;2023-11-21T07:32:47;101471.50;;;4.47;100.00
18765;BME280;9511;54.242;12.448;2023-11-21T07:35:15;101484.44;;;4.59;100.00
18765;BME280;9511;54.242;12.448;2023-11-21T07:37:42;101489.53;;;4.58;100.00
18765;BME280;9511;54.242;12.448;2023-11-21T07:40:10;101486.31;;;4.62;100.00
18765;BME280;9511;54.242;12.448;2023-11-21T07:42:38;101485.84;;;4.69;100.00
18765;BME280;9511;54.242;12.448;2023-11-21T07:45:06;101477.81;;;4.66;100.00
18765;BME280;9511;54.242;12.448;2023-11-21T07:47:34;101491.75;;;4.65;100.00
18765;BME280;9511;54.242;12.448;2023-11-21T07:50:03;101498.78;;;4.66;100.00
18765;BME280;9511;54.242;12.448;2023-11-21T07:52:31;101503.13;;;4.65;100.00
18765;BME280;9511;54.242;12.448;2023-11-21T07:54:58;101500.31;;;4.62;100.00
18765;BME280;9511;54.242;12.448;2023-11-21T07:57:26;101508.53;;;4.68;100.00
18765;BME280;9511;54.242;12.448;2023-11-21T07:59:53;101506.94;;;4.70;100.00
18765;BME280;9511;54.242;12.448;2023-11-21T08:02:21;101507.38;;;4.78;100.00
18765;BME280;9511;54.242;12.448;2023-11-21T08:04:48;101496.91;;;4.78;100.00
18765;BME280;9511;54.242;12.448;2023-11-21T08:07:18;101508.56;;;4.83;100.00
18765;BME280;9511;54.242;12.448;2023-11-21T08:09:45;101502.59;;;4.86;100.00
18765;BME280;9511;54.242;12.448;2023-11-21T08:12:15;101501.25;;;4.92;100.00
18765;BME280;9511;54.242;12.448;2023-11-21T08:14:43;101508.41;;;4.95;100.00
18765;BME280;9511;54.242;12.448;2023-11-21T08:17:10;101518.06;;;4.96;100.00
18765;BME280;9511;54.242;12.448;2023-11-21T08:19:38;101524.28;;;4.98;100.00
18765;BME280;9511;54.242;12.448;2023-11-21T08:22:05;101522.22;;;4.92;100.00
18765;BME280;9511;54.242;12.448;2023-11-21T08:24:35;101528.47;;;4.94;100.00
18765;BME280;9511;54.242;12.448;2023-11-21T08:27:03;101536.69;;;5.00;100.00
18765;BME280;9511;54.242;12.448;2023-11-21T08:29:33;101536.22;;;4.93;100.00
18765;BME280;9511;54.242;12.448;2023-11-21T08:32:00;101537.53;;;4.99;100.00
18765;BME280;9511;54.242;12.448;2023-11-21T08:34:28;101539.50;;;5.03;100.00
18765;BME280;9511;54.242;12.448;2023-11-21T08:36:55;101557.13;;;5.06;100.00
18765;BME280;9511;54.242;12.448;2023-11-21T08:39:23;101553.97;;;5.12;99.78
18765;BME280;9511;54.242;12.448;2023-11-21T08:41:52;101549.97;;;5.03;99.12
18765;BME280;9511;54.242;12.448;2023-11-21T08:44:19;101561.28;;;5.02;98.85
18765;BME280;9511;54.242;12.448;2023-11-21T08:46:47;101553.63;;;5.05;98.34
18765;BME280;9511;54.242;12.448;2023-11-21T08:49:15;101551.97;;;5.07;98.31
18765;BME280;9511;54.242;12.448;2023-11-21T08:51:44;101572.22;;;5.10;98.24
18765;BME280;9511;54.242;12.448;2023-11-21T08:54:11;101574.22;;;5.14;98.25
18765;BME280;9511;54.242;12.448;2023-11-21T08:56:40;101556.06;;;5.17;97.80
18765;BME280;9511;54.242;12.448;2023-11-21T08:59:08;101564.84;;;5.18;97.71
18765;BME280;9511;54.242;12.448;2023-11-21T09:01:36;101569.53;;;5.23;97.60
18765;BME280;9511;54.242;12.448;2023-11-21T09:04:03;101571.34;;;5.24;97.04
18765;BME280;9511;54.242;12.448;2023-11-21T09:06:30;101572.59;;;5.31;96.68
18765;BME280;9511;54.242;12.448;2023-11-21T09:08:58;101573.34;;;5.28;96.53
18765;BME280;9511;54.242;12.448;2023-11-21T09:11:25;101570.06;;;5.32;96.46
18765;BME280;9511;54.242;12.448;2023-11-21T09:13:57;101577.50;;;5.40;96.14
18765;BME280;9511;54.242;12.448;2023-11-21T09:16:26;101591.69;;;5.43;96.57
18765;BME280;9511;54.242;12.448;2023-11-21T09:18:53;101592.50;;;5.42;96.04
18765;BME280;9511;54.242;12.448;2023-11-21T09:21:20;101588.25;;;5.44;95.63
18765;BME280;9511;54.242;12.448;2023-11-21T09:23:49;101594.66;;;5.49;95.55
18765;BME280;9511;54.242;12.448;2023-11-21T09:26:16;101599.66;;;5.59;95.75
18765;BME280;9511;54.242;12.448;2023-11-21T09:28:44;101601.91;;;5.53;95.42
18765;BME280;9511;54.242;12.448;2023-11-21T09:31:13;101611.22;;;5.48;94.80
18765;BME280;9511;54.242;12.448;2023-11-21T09:33:44;101623.00;;;5.55;95.16
18765;BME280;9511;54.242;12.448;2023-11-21T09:36:11;101618.56;;;5.54;95.10
18765;BME280;9511;54.242;12.448;2023-11-21T09:38:40;101618.47;;;5.52;94.86
18765;BME280;9511;54.242;12.448;2023-11-21T09:41:14;101625.63;;;5.55;94.52
18765;BME280;9511;54.242;12.448;2023-11-21T09:43:46;101629.97;;;5.54;94.62
18765;BME280;9511;54.242;12.448;2023-11-21T09:46:14;101635.22;;;5.54;94.57
18765;BME280;9511;54.242;12.448;2023-11-21T09:48:50;101637.00;;;5.55;94.78
18765;BME280;9511;54.242;12.448;2023-11-21T09:51:19;101645.63;;;5.53;94.53
18765;BME280;9511;54.242;12.448;2023-11-21T09:53:49;101645.72;;;5.54;94.37
18765;BME280;9511;54.242;12.448;2023-11-21T09:56:18;101646.97;;;5.61;94.25
18765;BME280;9511;54.242;12.448;2023-11-21T09:58:51;101655.31;;;5.69;94.61
18765;BME280;9511;54.242;12.448;2023-11-21T10:01:20;101651.88;;;5.70;93.90
18765;BME280;9511;54.242;12.448;2023-11-21T10:03:49;101665.63;;;5.80;93.56
18765;BME280;9511;54.242;12.448;2023-11-21T10:06:17;101670.06;;;5.81;93.12
18765;BME280;9511;54.242;12.448;2023-11-21T10:08:46;101673.78;;;5.85;92.62
18765;BME280;9511;54.242;12.448;2023-11-21T10:11:14;101666.91;;;5.87;91.86
18765;BME280;9511;54.242;12.448;2023-11-21T10:13:43;101667.06;;;5.90;91.53
18765;BME280;9511;54.242;12.448;2023-11-21T10:16:14;101663.22;;;5.98;91.40
18765;BME280;9511;54.242;12.448;2023-11-21T10:18:43;101665.91;;;6.00;91.26
18765;BME280;9511;54.242;12.448;2023-11-21T10:21:13;101668.81;;;6.04;90.51
18765;BME280;9511;54.242;12.448;2023-11-21T10:23:41;101669.63;;;6.03;89.94
18765;BME280;9511;54.242;12.448;2023-11-21T10:26:11;101667.44;;;5.96;89.83
18765;BME280;9511;54.242;12.448;2023-11-21T10:28:55;101684.84;;;5.94;89.67
18765;BME280;9511;54.242;12.448;2023-11-21T10:31:23;101682.50;;;5.99;89.70
18765;BME280;9511;54.242;12.448;2023-11-21T10:33:50;101689.81;;;6.04;89.50
18765;BME280;9511;54.242;12.448;2023-11-21T10:36:26;101690.81;;;6.06;89.75
18765;BME280;9511;54.242;12.448;2023-11-21T10:38:54;101694.72;;;5.98;89.41
18765;BME280;9511;54.242;12.448;2023-11-21T10:41:23;101690.19;;;5.96;89.57
18765;BME280;9511;54.242;12.448;2023-11-21T10:43:53;101693.69;;;5.96;89.60
18765;BME280;9511;54.242;12.448;2023-11-21T10:46:21;101697.28;;;5.97;89.70
18765;BME280;9511;54.242;12.448;2023-11-21T10:48:52;101702.84;;;5.88;89.77
18765;BME280;9511;54.242;12.448;2023-11-21T10:51:20;101702.47;;;5.82;90.10
18765;BME280;9511;54.242;12.448;2023-11-21T10:53:49;101704.28;;;5.83;90.11
18765;BME280;9511;54.242;12.448;2023-11-21T10:56:18;101719.41;;;5.87;90.17
18765;BME280;9511;54.242;12.448;2023-11-21T10:58:48;101715.81;;;5.85;90.24
18765;BME280;9511;54.242;12.448;2023-11-21T11:01:17;101716.50;;;5.82;90.08
18765;BME280;9511;54.242;12.448;2023-11-21T11:03:47;101720.84;;;5.82;90.11
18765;BME280;9511;54.242;12.448;2023-11-21T11:06:16;101711.97;;;5.65;89.57
18765;BME280;9511;54.242;12.448;2023-11-21T11:08:44;101724.06;;;5.48;88.54
18765;BME280;9511;54.242;12.448;2023-11-21T11:11:13;101721.69;;;5.38;88.40
18765;BME280;9511;54.242;12.448;2023-11-21T11:13:43;101723.41;;;5.38;88.23
18765;BME280;9511;54.242;12.448;2023-11-21T11:16:12;101726.03;;;5.38;88.27
18765;BME280;9511;54.242;12.448;2023-11-21T11:18:43;101730.59;;;5.40;88.46
18765;BME280;9511;54.242;12.448;2023-11-21T11:21:23;101720.50;;;5.33;88.84
18765;BME280;9511;54.242;12.448;2023-11-21T11:24:05;101722.44;;;5.36;88.44
18765;BME280;9511;54.242;12.448;2023-11-21T11:26:46;101731.28;;;5.38;88.92
18765;BME280;9511;54.242;12.448;2023-11-21T11:29:23;101729.75;;;5.41;89.04
18765;BME280;9511;54.242;12.448;2023-11-21T11:32:02;101724.81;;;5.46;88.83
18765;BME280;9511;54.242;12.448;2023-11-21T11:34:34;101721.88;;;5.41;89.02
18765;BME280;9511;54.242;12.448;2023-11-21T11:37:04;101721.16;;;5.29;89.57
18765;BME280;9511;54.242;12.448;2023-11-21T11:39:35;101729.09;;;5.30;89.54
18765;BME280;9511;54.242;12.448;2023-11-21T11:42:08;101731.63;;;5.29;89.49
18765;BME280;9511;54.242;12.448;2023-11-21T11:44:50;101737.41;;;5.23;89.24
18765;BME280;9511;54.242;12.448;2023-11-21T11:47:23;101749.34;;;5.18;89.16
18765;BME280;9511;54.242;12.448;2023-11-21T11:50:02;101748.03;;;5.12;88.37
18765;BME280;9511;54.242;12.448;2023-11-21T11:52:40;101755.91;;;5.12;88.61
18765;BME280;9511;54.242;12.448;2023-11-21T11:55:09;101756.09;;;5.15;88.61
18765;BME280;9511;54.242;12.448;2023-11-21T11:57:42;101765.97;;;5.19;88.53
18765;BME280;9511;54.242;12.448;2023-11-21T12:00:17;101760.72;;;5.19;88.56
18765;BME280;9511;54.242;12.448;2023-11-21T12:02:47;101762.75;;;5.23;88.44
18765;BME280;9511;54.242;12.448;2023-11-21T12:05:16;101767.59;;;5.17;88.31
18765;BME280;9511;54.242;12.448;2023-11-21T12:07:45;101775.25;;;5.14;88.01
18765;BME280;9511;54.242;12.448;2023-11-21T12:10:14;101782.53;;;5.04;87.66
18765;BME280;9511;54.242;12.448;2023-11-21T12:12:49;101775.31;;;5.00;87.64
18765;BME280;9511;54.242;12.448;2023-11-21T12:15:18;101779.13;;;5.05;87.28
18765;BME280;9511;54.242;12.448;2023-11-21T12:17:46;101779.59;;;5.13;87.19
18765;BME280;9511;54.242;12.448;2023-11-21T12:20:13;101780.34;;;5.11;87.55
18765;BME280;9511;54.242;12.448;2023-11-21T12:22:45;101784.38;;;5.05;87.46
18765;BME280;9511;54.242;12.448;2023-11-21T12:25:15;101796.47;;;5.03;87.82
18765;BME280;9511;54.242;12.448;2023-11-21T12:27:45;101793.44;;;4.97;87.85
18765;BME280;9511;54.242;12.448;2023-11-21T12:30:14;101801.13;;;4.94;87.83
18765;BME280;9511;54.242;12.448;2023-11-21T12:32:44;101804.34;;;4.90;87.89
18765;BME280;9511;54.242;12.448;2023-11-21T12:35:12;101806.88;;;4.89;87.87
18765;BME280;9511;54.242;12.448;2023-11-21T12:37:41;101811.22;;;4.88;88.19
18765;BME280;9511;54.242;12.448;2023-11-21T12:40:10;101815.34;;;4.85;87.97
18765;BME280;9511;54.242;12.448;2023-11-21T12:42:41;101817.97;;;4.85;87.86
18765;BME280;9511;54.242;12.448;2023-11-21T12:45:10;101819.59;;;4.83;88.37
18765;BME280;9511;54.242;12.448;2023-11-21T12:47:48;101828.78;;;4.76;88.13
18765;BME280;9511;54.242;12.448;2023-11-21T12:50:19;101830.28;;;4.72;87.93
18765;BME280;9511;54.242;12.448;2023-11-21T12:52:50;101835.53;;;4.72;88.25
18765;BME280;9511;54.242;12.448;2023-11-21T12:55:20;101835.22;;;4.68;88.58
18765;BME280;9511;54.242;12.448;2023-11-21T12:57:49;101845.53;;;4.65;89.34
18765;BME280;9511;54.242;12.448;2023-11-21T13:00:19;101839.34;;;4.64;89.53
18765;BME280;9511;54.242;12.448;2023-11-21T13:02:56;101844.78;;;4.67;89.64
18765;BME280;9511;54.242;12.448;2023-11-21T13:05:26;101846.78;;;4.58;89.36
18765;BME280;9511;54.242;12.448;2023-11-21T13:07:53;101859.00;;;4.58;89.54
18765;BME280;9511;54.242;12.448;2023-11-21T13:10:24;101862.34;;;4.55;89.65
18765;BME280;9511;54.242;12.448;2023-11-21T13:12:55;101870.38;;;4.58;89.93
18765;BME280;9511;54.242;12.448;2023-11-21T13:15:24;101869.19;;;4.53;90.01
18765;BME280;9511;54.242;12.448;2023-11-21T13:17:51;101875.13;;;4.50;90.27
18765;BME280;9511;54.242;12.448;2023-11-21T13:20:21;101872.81;;;4.42;90.78
18765;BME280;9511;54.242;12.448;2023-11-21T13:22:49;101885.19;;;4.44;90.64
18765;BME280;9511;54.242;12.448;2023-11-21T13:25:17;101895.66;;;4.44;91.23
18765;BME280;9511;54.242;12.448;2023-11-21T13:27:45;101894.44;;;4.39;90.94
18765;BME280;9511;54.242;12.448;2023-11-21T13:30:14;101895.84;;;4.34;91.26
18765;BME280;9511;54.242;12.448;2023-11-21T13:32:49;101903.28;;;4.28;91.23
18765;BME280;9511;54.242;12.448;2023-11-21T13:35:17;101923.81;;;4.22;91.32
18765;BME280;9511;54.242;12.448;2023-11-21T13:37:51;101929.91;;;4.09;90.73
18765;BME280;9511;54.242;12.448;2023-11-21T13:40:22;101928.19;;;4.10;90.29
18765;BME280;9511;54.242;12.448;2023-11-21T13:42:53;101933.44;;;4.10;90.45
18765;BME280;9511;54.242;12.448;2023-11-21T13:45:21;101933.69;;;4.01;90.53
18765;BME280;9511;54.242;12.448;2023-11-21T13:47:50;101939.63;;;3.98;90.52
18765;BME280;9511;54.242;12.448;2023-11-21T13:50:24;101929.88;;;3.96;90.91
18765;BME280;9511;54.242;12.448;2023-11-21T13:52:57;101939.19;;;3.92;91.26
18765;BME280;9511;54.242;12.448;2023-11-21T13:55:30;101943.09;;;3.86;91.66
18765;BME280;9511;54.242;12.448;2023-11-21T13:57:57;101945.63;;;3.84;91.76
18765;BME280;9511;54.242;12.448;2023-11-21T14:00:25;101947.91;;;3.80;91.81
18765;BME280;9511;54.242;12.448;2023-11-21T14:03:07;101950.38;;;3.78;92.67
18765;BME280;9511;54.242;12.448;2023-11-21T14:05:44;101948.47;;;3.76;92.95
18765;BME280;9511;54.242;12.448;2023-11-21T14:08:14;101968.41;;;3.73;93.01
18765;BME280;9511;54.242;12.448;2023-11-21T14:10:46;101959.31;;;3.68;93.43
18765;BME280;9511;54.242;12.448;2023-11-21T14:13:17;101969.06;;;3.71;93.90
18765;BME280;9511;54.242;12.448;2023-11-21T14:15:45;101967.03;;;3.67;93.46
18765;BME280;9511;54.242;12.448;2023-11-21T14:18:16;101963.63;;;3.68;94.16
18765;BME280;9511;54.242;12.448;2023-11-21T14:20:52;101973.06;;;3.66;94.34
18765;BME280;9511;54.242;12.448;2023-11-21T14:23:20;101965.00;;;3.63;93.95
18765;BME280;9511;54.242;12.448;2023-11-21T14:25:49;101978.91;;;3.62;93.99
18765;BME280;9511;54.242;12.448;2023-11-21T14:28:17;101977.28;;;3.64;94.40
18765;BME280;9511;54.242;12.448;2023-11-21T14:30:45;101978.91;;;3.62;93.92
18765;BME280;9511;54.242;12.448;2023-11-21T14:33:13;101986.41;;;3.57;94.50
18765;BME280;9511;54.242;12.448;2023-11-21T14:35:42;101996.09;;;3.46;94.41
18765;BME280;9511;54.242;12.448;2023-11-21T14:38:11;101990.84;;;3.46;94.80
18765;BME280;9511;54.242;12.448;2023-11-21T14:40:41;101995.06;;;3.44;94.87
18765;BME280;9511;54.242;12.448;2023-11-21T14:43:09;102000.06;;;3.41;95.45
18765;BME280;9511;54.242;12.448;2023-11-21T14:45:36;101999.84;;;3.38;95.51
18765;BME280;9511;54.242;12.448;2023-11-21T14:48:04;102010.97;;;3.36;95.74
18765;BME280;9511;54.242;12.448;2023-11-21T14:50:42;102017.00;;;3.35;96.11
18765;BME280;9511;54.242;12.448;2023-11-21T14:53:15;102010.88;;;3.34;96.63
18765;BME280;9511;54.242;12.448;2023-11-21T14:55:56;102011.69;;;3.33;96.54
18765;BME280;9511;54.242;12.448;2023-11-21T14:58:25;102015.88;;;3.31;96.67
18765;BME280;9511;54.242;12.448;2023-11-21T15:00:54;102017.56;;;3.31;96.79
18765;BME280;9511;54.242;12.448;2023-11-21T15:03:24;102015.88;;;3.31;96.25
18765;BME280;9511;54.242;12.448;2023-11-21T15:06:09;102022.69;;;3.29;97.13
18765;BME280;9511;54.242;12.448;2023-11-21T15:08:49;102027.94;;;3.29;97.20
18765;BME280;9511;54.242;12.448;2023-11-21T15:11:25;102033.38;;;3.32;96.92
18765;BME280;9511;54.242;12.448;2023-11-21T15:13:57;102028.03;;;3.31;97.26
18765;BME280;9511;54.242;12.448;2023-11-21T15:16:24;102036.78;;;3.31;97.23
18765;BME280;9511;54.242;12.448;2023-11-21T15:18:52;102046.44;;;3.32;97.43
18765;BME280;9511;54.242;12.448;2023-11-21T15:21:20;102046.94;;;3.38;97.69
18765;BME280;9511;54.242;12.448;2023-11-21T15:23:50;102058.50;;;3.42;97.81
18765;BME280;9511;54.242;12.448;2023-11-21T15:26:17;102050.56;;;3.40;97.40
18765;BME280;9511;54.242;12.448;2023-11-21T15:28:46;102053.97;;;3.39;97.00
18765;BME280;9511;54.242;12.448;2023-11-21T15:31:13;102052.72;;;3.34;96.86
18765;BME280;9511;54.242;12.448;2023-11-21T15:33:42;102047.13;;;3.30;96.69
18765;BME280;9511;54.242;12.448;2023-11-21T15:36:10;102048.84;;;3.29;97.07
18765;BME280;9511;54.242;12.448;2023-11-21T15:38:39;102056.22;;;3.23;97.09
18765;BME280;9511;54.242;12.448;2023-11-21T15:41:06;102060.91;;;3.27;97.69
18765;BME280;9511;54.242;12.448;2023-11-21T15:43:36;102064.06;;;3.23;97.69
18765;BME280;9511;54.242;12.448;2023-11-21T15:46:05;102065.88;;;3.24;98.08
18765;BME280;9511;54.242;12.448;2023-11-21T15:48:34;102068.50;;;3.24;97.95
18765;BME280;9511;54.242;12.448;2023-11-21T15:51:02;102080.78;;;3.25;98.10
18765;BME280;9511;54.242;12.448;2023-11-21T15:53:31;102084.19;;;3.24;98.35
18765;BME280;9511;54.242;12.448;2023-11-21T15:55:59;102085.09;;;3.25;98.64
18765;BME280;9511;54.242;12.448;2023-11-21T15:58:26;102085.00;;;3.23;98.51
18765;BME280;9511;54.242;12.448;2023-11-21T16:00:54;102092.50;;;3.18;98.67
18765;BME280;9511;54.242;12.448;2023-11-21T16:03:23;102102.03;;;3.18;98.95
18765;BME280;9511;54.242;12.448;2023-11-21T16:05:51;102093.19;;;3.16;98.68
18765;BME280;9511;54.242;12.448;2023-11-21T16:08:19;102106.25;;;3.16;98.82
18765;BME280;9511;54.242;12.448;2023-11-21T16:10:47;102114.09;;;3.16;99.25
18765;BME280;9511;54.242;12.448;2023-11-21T16:13:14;102109.88;;;3.18;99.04
18765;BME280;9511;54.242;12.448;2023-11-21T16:15:43;102115.09;;;3.18;99.28
18765;BME280;9511;54.242;12.448;2023-11-21T16:18:11;102122.94;;;3.18;99.46
18765;BME280;9511;54.242;12.448;2023-11-21T16:20:39;102116.03;;;3.18;99.35
18765;BME280;9511;54.242;12.448;2023-11-21T16:23:07;102120.69;;;3.23;99.31
18765;BME280;9511;54.242;12.448;2023-11-21T16:25:35;102122.41;;;3.22;99.17
18765;BME280;9511;54.242;12.448;2023-11-21T16:28:02;102131.81;;;3.20;98.95
18765;BME280;9511;54.242;12.448;2023-11-21T16:30:31;102136.56;;;3.14;98.95
18765;BME280;9511;54.242;12.448;2023-11-21T16:33:00;102149.44;;;3.11;99.39
18765;BME280;9511;54.242;12.448;2023-11-21T16:35:27;102151.91;;;3.09;99.04
18765;BME280;9511;54.242;12.448;2023-11-21T16:37:55;102159.41;;;3.05;98.80
18765;BME280;9511;54.242;12.448;2023-11-21T16:40:23;102166.78;;;2.99;98.87
18765;BME280;9511;54.242;12.448;2023-11-21T16:42:50;102166.53;;;2.96;99.14
18765;BME280;9511;54.242;12.448;2023-11-21T16:45:17;102176.75;;;2.92;99.25
18765;BME280;9511;54.242;12.448;2023-11-21T16:47:45;102179.59;;;2.96;99.10
18765;BME280;9511;54.242;12.448;2023-11-21T16:50:12;102179.13;;;2.89;99.69
18765;BME280;9511;54.242;12.448;2023-11-21T16:52:41;102190.38;;;2.88;98.98
18765;BME280;9511;54.242;12.448;2023-11-21T16:55:10;102188.41;;;2.86;99.56
18765;BME280;9511;54.242;12.448;2023-11-21T16:57:38;102188.72;;;2.79;99.59
18765;BME280;9511;54.242;12.448;2023-11-21T17:00:06;102200.63;;;2.75;99.76
18765;BME280;9511;54.242;12.448;2023-11-21T17:02:37;102200.63;;;2.75;99.66
18765;BME280;9511;54.242;12.448;2023-11-21T17:05:06;102203.69;;;2.70;99.49
18765;BME280;9511;54.242;12.448;2023-11-21T17:07:34;102205.03;;;2.64;99.57
18765;BME280;9511;54.242;12.448;2023-11-21T17:10:01;102208.81;;;2.58;99.11
18765;BME280;9511;54.242;12.448;2023-11-21T17:12:34;102213.50;;;2.62;99.40